Terminal Aerodrome Forecast
Issued by NWS

Home | Current Version | Previous Version | Text Only | Print | Product List | Glossary On
Versions: 1 2 3 4 5 6 7 8 9 10 11 12 13 14 15 16 17 18 19 20 21 22 23 24 25 26 27 28 29 30
758
FTUS46 KEKA 111147
TAFUKI
TAF
KUKI 111147Z 1112/1212 VRB03KT P6SM BKN025
     FM111400 VRB03KT P6SM SCT200
     FM111700 VRB03KT P6SM SCT250
     FM120200 00000KT P6SM SCT250=

USA.gov is the U.S. government's official web portal to all federal, state and local government web resources and services.